Time;durP1;ratioP1;P1;durP2;ratioP2;P2;SDS_P1;SDS_P2;PMS_P1;PMS_P2;Temp;Humidity;BMP_temperature;BMP_pressure;BME280_temperature;BME280_humidity;BME280_pressure;Samples;Min_cycle;Max_cycle;Signal;HPM_P1;HPM_P2
2021/09/02 00:01:43;;;;;;;;;;;16.90;90.40;;;;;;4330650;33;43872;-77
2021/09/02 00:04:11;;;;;;;;;;;16.90;90.40;;;;;;4330245;33;43901;-77
2021/09/02 00:06:38;;;;;;;;;;;16.90;90.40;;;;;;4330028;33;44111;-77
2021/09/02 00:09:08;;;;;;;;;;;16.90;90.40;;;;;;4330873;33;43109;-77
2021/09/02 00:11:38;;;;;;;;;;;16.90;90.40;;;;;;4329952;33;44113;-77
2021/09/02 00:14:05;;;;;;;;;;;16.90;90.40;;;;;;4330806;33;42622;-77
2021/09/02 00:16:37;;;;;;;;;;;16.80;90.30;;;;;;4330796;33;44498;-77
2021/09/02 00:19:07;;;;;;;;;;;16.80;90.30;;;;;;4330913;33;44186;-78
2021/09/02 00:21:35;;;;;;;;;;;16.80;90.30;;;;;;4330319;33;43920;-77
2021/09/02 00:24:04;;;;;;;;;;;16.80;90.30;;;;;;4330844;33;44203;-77
2021/09/02 00:26:35;;;;;;;;;;;16.80;90.30;;;;;;4330832;33;44024;-77
2021/09/02 00:29:02;;;;;;;;;;;16.70;90.30;;;;;;4329177;33;42657;-77
2021/09/02 00:31:29;;;;;;;;;;;16.70;90.40;;;;;;4330720;33;43859;-77
2021/09/02 00:33:59;;;;;;;;;;;16.70;90.40;;;;;;4329254;33;43067;-77
2021/09/02 00:36:26;;;;;;;;;;;16.70;90.50;;;;;;4330893;33;42495;-76
2021/09/02 00:38:53;;;;;;;;;;;16.70;90.50;;;;;;4330203;33;43782;-77
2021/09/02 00:41:23;;;;;;;;;;;16.70;90.60;;;;;;4330248;33;44200;-77
2021/09/02 00:43:53;;;;;;;;;;;16.70;90.60;;;;;;4329267;33;44222;-77
2021/09/02 00:46:23;;;;;;;;;;;16.70;90.50;;;;;;4329620;33;43387;-77
2021/09/02 00:48:59;;;;;;;;;;;16.70;90.50;;;;;;4329020;33;43621;-77
2021/09/02 00:51:26;;;;;;;;;;;16.70;91.00;;;;;;4330602;33;44211;-77
2021/09/02 00:53:55;;;;;;;;;;;16.70;90.60;;;;;;4330288;33;45217;-77
2021/09/02 00:56:28;;;;;;;;;;;16.70;90.60;;;;;;4329372;33;43488;-77
2021/09/02 00:58:58;;;;;;;;;;;16.60;90.60;;;;;;4330511;33;44146;-77
2021/09/02 01:01:25;;;;;;;;;;;16.70;90.60;;;;;;4329410;33;44121;-77
2021/09/02 01:03:53;;;;;;;;;;;16.60;90.50;;;;;;4330230;33;43473;-77
2021/09/02 01:06:21;;;;;;;;;;;16.60;90.50;;;;;;4330565;33;42176;-77
2021/09/02 01:08:49;;;;;;;;;;;16.60;90.50;;;;;;4330511;33;43501;-77
2021/09/02 01:11:43;;;;;;;;;;;16.60;90.50;;;;;;4329680;33;46468;-77
2021/09/02 01:14:19;;;;;;;;;;;16.60;90.50;;;;;;4330522;33;43117;-77
2021/09/02 01:16:51;;;;;;;;;;;16.50;90.50;;;;;;4330349;33;42519;-77
2021/09/02 01:19:27;;;;;;;;;;;16.50;90.50;;;;;;4330460;33;43846;-77
2021/09/02 01:21:57;;;;;;;;;;;16.50;90.50;;;;;;4330539;33;43563;-77
2021/09/02 01:24:27;;;;;;;;;;;16.50;90.50;;;;;;4330283;33;44271;-77
2021/09/02 01:26:57;;;;;;;;;;;16.50;90.50;;;;;;4330545;33;43158;-77
2021/09/02 01:29:30;;;;;;;;;;;16.50;90.50;;;;;;4328722;33;43206;-77
2021/09/02 01:31:57;;;;;;;;;;;16.40;90.40;;;;;;4331526;33;45889;-77
2021/09/02 01:34:27;;;;;;;;;;;16.40;90.40;;;;;;4332734;33;43790;-77
2021/09/02 01:36:57;;;;;;;;;;;16.40;90.40;;;;;;4331600;33;43214;-78
2021/09/02 01:39:30;;;;;;;;;;;16.40;90.40;;;;;;4333121;33;44147;-77
2021/09/02 01:42:00;;;;;;;;;;;16.40;90.50;;;;;;4333217;33;44203;-77
2021/09/02 01:44:30;;;;;;;;;;;16.40;90.60;;;;;;4331512;33;43947;-76
2021/09/02 01:47:02;;;;;;;;;;;16.40;90.60;;;;;;4333083;33;44045;-77
2021/09/02 01:49:35;;;;;;;;;;;16.40;90.60;;;;;;4331841;33;43874;-77
2021/09/02 01:52:04;;;;;;;;;;;16.30;90.60;;;;;;4332647;33;43049;-76
2021/09/02 01:54:34;;;;;;;;;;;16.30;90.60;;;;;;4332068;33;43190;-77
2021/09/02 01:57:04;;;;;;;;;;;16.30;90.50;;;;;;4332869;33;43482;-77
2021/09/02 01:59:37;;;;;;;;;;;16.30;90.50;;;;;;4331282;33;43117;-77
2021/09/02 02:02:07;;;;;;;;;;;16.30;90.50;;;;;;4332461;33;45356;-78
2021/09/02 02:04:38;;;;;;;;;;;16.30;90.50;;;;;;4332580;33;44183;-77
2021/09/02 02:07:07;;;;;;;;;;;16.20;90.50;;;;;;4332242;33;44251;-77
2021/09/02 02:09:41;;;;;;;;;;;16.20;90.50;;;;;;4332490;33;20037;-77
2021/09/02 02:12:11;;;;;;;;;;;16.20;90.60;;;;;;4331666;33;43868;-77
2021/09/02 02:14:44;;;;;;;;;;;16.20;90.50;;;;;;4332679;33;43279;-77
2021/09/02 02:17:15;;;;;;;;;;;16.20;90.50;;;;;;4330961;33;45519;-77
2021/09/02 02:19:42;;;;;;;;;;;16.20;90.50;;;;;;4332183;33;44399;-77
2021/09/02 02:22:09;;;;;;;;;;;16.20;90.60;;;;;;4332409;33;43923;-77
2021/09/02 02:24:39;;;;;;;;;;;16.20;90.60;;;;;;4330954;33;43314;-77
2021/09/02 02:27:06;;;;;;;;;;;16.20;90.60;;;;;;4332427;33;42299;-77
2021/09/02 02:29:36;;;;;;;;;;;16.10;90.50;;;;;;4332108;33;42293;-77
2021/09/02 02:32:03;;;;;;;;;;;16.10;90.50;;;;;;4331086;33;44184;-77
2021/09/02 02:34:30;;;;;;;;;;;16.10;90.50;;;;;;4330769;33;43557;-77
2021/09/02 02:37:00;;;;;;;;;;;16.10;90.50;;;;;;4332285;33;43961;-77
2021/09/02 02:39:32;;;;;;;;;;;16.10;90.50;;;;;;4331805;33;43040;-77
2021/09/02 02:42:00;;;;;;;;;;;16.10;90.50;;;;;;4332409;33;43486;-77
2021/09/02 02:44:27;;;;;;;;;;;16.10;90.60;;;;;;4330172;33;43957;-77
2021/09/02 02:46:57;;;;;;;;;;;16.00;90.60;;;;;;4332343;33;43511;-77
2021/09/02 02:49:24;;;;;;;;;;;16.00;90.60;;;;;;4330826;33;42778;-77
2021/09/02 02:51:52;;;;;;;;;;;16.00;90.70;;;;;;4331059;33;43651;-77
2021/09/02 02:54:22;;;;;;;;;;;16.00;90.70;;;;;;4332123;33;42918;-77
2021/09/02 02:56:49;;;;;;;;;;;16.00;90.80;;;;;;4330455;33;46015;-77
2021/09/02 02:59:19;;;;;;;;;;;16.00;90.80;;;;;;4332037;33;44322;-77
2021/09/02 03:01:49;;;;;;;;;;;16.00;90.80;;;;;;4331867;33;43924;-77
2021/09/02 03:04:19;;;;;;;;;;;16.00;90.80;;;;;;4330526;33;43852;-77
2021/09/02 03:06:55;;;;;;;;;;;16.00;90.80;;;;;;4331849;33;44022;-77
2021/09/02 03:09:28;;;;;;;;;;;16.00;91.10;;;;;;4330262;33;43990;-77
2021/09/02 03:11:58;;;;;;;;;;;16.00;90.80;;;;;;4330835;33;43304;-77
2021/09/02 03:14:30;;;;;;;;;;;16.00;90.80;;;;;;4331801;33;46016;-77
2021/09/02 03:17:04;;;;;;;;;;;16.00;90.90;;;;;;4330816;33;43109;-78
2021/09/02 03:19:34;;;;;;;;;;;16.00;90.80;;;;;;4331387;33;42949;-77
2021/09/02 03:22:03;;;;;;;;;;;16.00;90.90;;;;;;4331766;33;43956;-77
2021/09/02 03:24:36;;;;;;;;;;;15.90;90.80;;;;;;4331137;33;43664;-77
2021/09/02 03:27:03;;;;;;;;;;;15.90;90.80;;;;;;4331689;33;43912;-77
2021/09/02 03:29:33;;;;;;;;;;;15.90;90.70;;;;;;4331496;33;43351;-77
2021/09/02 03:32:06;;;;;;;;;;;15.90;90.70;;;;;;4330621;33;43873;-77
2021/09/02 03:34:34;;;;;;;;;;;15.90;90.70;;;;;;4331153;33;43478;-77
2021/09/02 03:37:01;;;;;;;;;;;15.90;90.80;;;;;;4330113;33;44172;-77
2021/09/02 03:39:34;;;;;;;;;;;15.90;90.80;;;;;;4331026;33;44354;-77
2021/09/02 03:42:01;;;;;;;;;;;15.90;90.80;;;;;;4330972;33;42549;-77
2021/09/02 03:44:28;;;;;;;;;;;15.90;90.80;;;;;;4331398;33;42596;-77
2021/09/02 03:47:04;;;;;;;;;;;15.90;90.80;;;;;;4330337;33;45571;-77
2021/09/02 03:49:31;;;;;;;;;;;15.80;90.80;;;;;;4331236;33;44707;-77
2021/09/02 03:52:00;;;;;;;;;;;15.80;90.90;;;;;;4331276;33;43267;-77
2021/09/02 03:54:33;;;;;;;;;;;15.80;90.80;;;;;;4331039;33;43796;-77
2021/09/02 03:57:02;;;;;;;;;;;15.80;90.90;;;;;;4331182;33;43742;-77
2021/09/02 03:59:32;;;;;;;;;;;15.80;90.80;;;;;;4329664;33;45029;-77
2021/09/02 04:02:05;;;;;;;;;;;15.80;90.80;;;;;;4330691;33;43046;-77
2021/09/02 04:04:35;;;;;;;;;;;15.80;90.90;;;;;;4330283;33;43950;-77
2021/09/02 04:07:03;;;;;;;;;;;15.80;90.90;;;;;;4329530;33;42320;-77
2021/09/02 04:09:35;;;;;;;;;;;15.80;90.90;;;;;;4329445;33;43393;-77
2021/09/02 04:12:05;;;;;;;;;;;15.80;90.90;;;;;;4330773;33;42433;-78
2021/09/02 04:14:33;;;;;;;;;;;15.70;90.80;;;;;;4330963;33;43490;-77
2021/09/02 04:17:00;;;;;;;;;;;15.70;90.80;;;;;;4330707;33;42806;-77
2021/09/02 04:19:29;;;;;;;;;;;15.70;90.80;;;;;;4329712;33;43328;-77
2021/09/02 04:21:56;;;;;;;;;;;15.70;90.90;;;;;;4330337;33;44112;-77
2021/09/02 04:24:29;;;;;;;;;;;15.70;90.90;;;;;;4330539;33;43443;-77
2021/09/02 04:26:56;;;;;;;;;;;15.70;91.00;;;;;;4329989;33;43491;-77
2021/09/02 04:29:23;;;;;;;;;;;15.70;91.00;;;;;;4329456;33;42397;-77
2021/09/02 04:31:59;;;;;;;;;;;15.60;91.10;;;;;;4330684;33;43420;-77
2021/09/02 04:34:29;;;;;;;;;;;15.70;91.10;;;;;;4329778;33;44855;-78
2021/09/02 04:37:01;;;;;;;;;;;15.60;91.20;;;;;;4330868;33;43419;-77
2021/09/02 04:39:31;;;;;;;;;;;15.70;91.20;;;;;;4329227;33;44135;-77
2021/09/02 04:42:04;;;;;;;;;;;15.60;91.20;;;;;;4330371;33;20056;-77
2021/09/02 04:44:37;;;;;;;;;;;15.60;91.20;;;;;;4330737;33;43334;-77
2021/09/02 04:47:04;;;;;;;;;;;15.60;91.30;;;;;;4330047;33;44413;-78
2021/09/02 04:49:37;;;;;;;;;;;15.70;91.30;;;;;;4329393;33;43813;-77
2021/09/02 04:52:04;;;;;;;;;;;15.60;91.30;;;;;;4330152;33;43377;-77
2021/09/02 04:54:32;;;;;;;;;;;15.60;91.30;;;;;;4330565;33;43953;-77
2021/09/02 04:56:59;;;;;;;;;;;15.70;91.40;;;;;;4330135;33;42458;-77
2021/09/02 04:59:29;;;;;;;;;;;15.60;91.40;;;;;;4330175;33;43064;-77
2021/09/02 05:01:59;;;;;;;;;;;15.60;91.40;;;;;;4330171;33;45678;-77
2021/09/02 05:04:31;;;;;;;;;;;15.70;91.40;;;;;;4329405;33;43310;-77
2021/09/02 05:06:58;;;;;;;;;;;15.70;91.40;;;;;;4331750;33;43127;-77
2021/09/02 05:09:25;;;;;;;;;;;15.60;91.40;;;;;;4332014;33;44260;-77
2021/09/02 05:12:12;;;;;;;;;;;15.70;91.50;;;;;;4334627;33;19998;-77
2021/09/02 05:14:42;;;;;;;;;;;15.70;91.50;;;;;;4333181;33;43889;-77
2021/09/02 05:17:09;;;;;;;;;;;15.60;91.50;;;;;;4333436;33;44105;-77
2021/09/02 05:19:37;;;;;;;;;;;15.70;91.50;;;;;;4331658;33;43479;-77
2021/09/02 05:22:04;;;;;;;;;;;15.70;91.60;;;;;;4332911;33;43851;-77
2021/09/02 05:24:34;;;;;;;;;;;15.70;91.60;;;;;;4333230;33;43636;-78
2021/09/02 05:27:07;;;;;;;;;;;15.60;91.50;;;;;;4333679;33;44299;-77
2021/09/02 05:29:34;;;;;;;;;;;15.70;91.60;;;;;;4332822;33;43516;-77
2021/09/02 05:32:01;;;;;;;;;;;15.60;91.60;;;;;;4332901;33;42939;-76
2021/09/02 05:34:29;;;;;;;;;;;15.70;91.70;;;;;;4332196;33;44196;-77
2021/09/02 05:36:58;;;;;;;;;;;15.60;91.70;;;;;;4333083;33;43474;-77
2021/09/02 05:39:26;;;;;;;;;;;15.60;91.70;;;;;;4332143;33;44231;-76
2021/09/02 05:41:57;;;;;;;;;;;15.60;91.70;;;;;;4331581;33;43227;-77
2021/09/02 05:44:24;;;;;;;;;;;15.60;91.70;;;;;;4331487;33;44193;-77
2021/09/02 05:46:51;;;;;;;;;;;15.60;91.70;;;;;;4331974;33;45357;-77
2021/09/02 05:49:18;;;;;;;;;;;15.60;91.80;;;;;;4333122;33;44092;-77
2021/09/02 05:51:48;;;;;;;;;;;15.60;91.80;;;;;;4332919;33;44700;-77
2021/09/02 05:54:15;;;;;;;;;;;15.60;91.90;;;;;;4331366;33;45908;-77
2021/09/02 05:56:43;;;;;;;;;;;15.60;91.90;;;;;;4331465;33;44212;-77
2021/09/02 05:59:10;;;;;;;;;;;15.60;91.90;;;;;;4332605;33;43905;-77
2021/09/02 06:01:37;;;;;;;;;;;15.60;91.90;;;;;;4332748;33;43169;-77
2021/09/02 06:04:04;;;;;;;;;;;15.60;92.00;;;;;;4331185;33;43119;-77
2021/09/02 06:06:35;;;;;;;;;;;15.60;92.00;;;;;;4332727;33;43999;-77
2021/09/02 06:09:02;;;;;;;;;;;15.60;92.00;;;;;;4331273;33;42990;-77
2021/09/02 06:11:29;;;;;;;;;;;15.70;92.10;;;;;;4332774;33;44019;-77
2021/09/02 06:13:57;;;;;;;;;;;15.60;92.10;;;;;;4331604;33;43268;-77
2021/09/02 06:16:24;;;;;;;;;;;15.60;92.10;;;;;;4332698;33;44228;-77
2021/09/02 06:18:51;;;;;;;;;;;15.60;92.10;;;;;;4331576;33;43323;-76
2021/09/02 06:21:18;;;;;;;;;;;15.70;92.20;;;;;;4332470;33;44898;-77
2021/09/02 06:23:46;;;;;;;;;;;15.70;92.20;;;;;;4331026;33;44697;-76
2021/09/02 06:26:13;;;;;;;;;;;15.70;92.30;;;;;;4330929;33;43122;-76
2021/09/02 06:28:43;;;;;;;;;;;15.60;92.20;;;;;;4331191;33;43513;-76
2021/09/02 06:31:10;;;;;;;;;;;15.70;92.30;;;;;;4330809;33;43119;-77
2021/09/02 06:33:39;;;;;;;;;;;15.70;92.30;;;;;;4332331;33;44305;-77
2021/09/02 06:36:06;;;;;;;;;;;15.70;92.30;;;;;;4331538;33;43896;-76
2021/09/02 06:38:33;;;;;;;;;;;15.60;92.30;;;;;;4332081;33;44813;-76
2021/09/02 06:41:00;;;;;;;;;;;15.60;92.40;;;;;;4331272;33;43187;-77
2021/09/02 06:43:27;;;;;;;;;;;15.70;92.40;;;;;;4331794;33;42623;-76
2021/09/02 06:45:54;;;;;;;;;;;15.60;92.40;;;;;;4331796;33;43010;-76
2021/09/02 06:48:24;;;;;;;;;;;15.60;92.40;;;;;;4332135;33;42401;-76
2021/09/02 06:50:51;;;;;;;;;;;15.60;92.50;;;;;;4331610;33;44667;-77
2021/09/02 06:53:18;;;;;;;;;;;15.60;92.50;;;;;;4331811;33;42589;-76
2021/09/02 06:55:49;;;;;;;;;;;15.60;92.50;;;;;;4330917;33;43482;-77
2021/09/02 06:58:16;;;;;;;;;;;15.60;92.60;;;;;;4332102;33;43527;-76
2021/09/02 07:00:43;;;;;;;;;;;15.60;92.60;;;;;;4331571;33;42609;-76
2021/09/02 07:03:14;;;;;;;;;;;15.60;92.60;;;;;;4330625;33;43599;-76
2021/09/02 07:05:41;;;;;;;;;;;15.60;92.60;;;;;;4331650;33;44215;-77
2021/09/02 07:08:08;;;;;;;;;;;15.70;92.70;;;;;;4331470;33;44102;-76
2021/09/02 07:10:36;;;;;;;;;;;15.60;92.60;;;;;;4330551;33;43847;-76
2021/09/02 07:13:03;;;;;;;;;;;15.70;92.70;;;;;;4330779;33;43918;-76
2021/09/02 07:15:30;;;;;;;;;;;15.70;92.70;;;;;;4331299;33;43031;-76
2021/09/02 07:18:00;;;;;;;;;;;15.70;92.70;;;;;;4330285;33;43824;-76
2021/09/02 07:20:30;;;;;;;;;;;15.70;92.80;;;;;;4331366;33;44194;-76
2021/09/02 07:22:57;;;;;;;;;;;15.70;92.80;;;;;;4330147;33;43096;-76
2021/09/02 07:25:24;;;;;;;;;;;15.70;92.80;;;;;;4331536;33;41933;-76
2021/09/02 07:27:52;;;;;;;;;;;15.70;92.80;;;;;;4331197;33;43028;-77
2021/09/02 07:30:21;;;;;;;;;;;15.70;92.80;;;;;;4331273;33;43912;-76
2021/09/02 07:32:49;;;;;;;;;;;15.70;92.80;;;;;;4331485;33;43913;-76
2021/09/02 07:35:16;;;;;;;;;;;15.70;92.80;;;;;;4330163;33;43225;-76
2021/09/02 07:37:49;;;;;;;;;;;15.70;92.90;;;;;;4329983;33;43061;-77
2021/09/02 07:40:19;;;;;;;;;;;15.80;92.90;;;;;;4330408;33;44981;-76
2021/09/02 07:42:47;;;;;;;;;;;15.70;92.90;;;;;;4331321;33;43832;-77
2021/09/02 07:45:16;;;;;;;;;;;15.70;92.90;;;;;;4330861;33;43617;-76
2021/09/02 07:47:44;;;;;;;;;;;15.70;92.90;;;;;;4331060;33;43447;-76
2021/09/02 07:50:11;;;;;;;;;;;15.70;93.00;;;;;;4330368;33;43283;-76
2021/09/02 07:52:39;;;;;;;;;;;15.80;93.00;;;;;;4329711;33;43540;-77
2021/09/02 07:55:15;;;;;;;;;;;15.80;93.00;;;;;;4330859;33;43901;-77
2021/09/02 07:57:46;;;;;;;;;;;15.80;93.00;;;;;;4330269;33;42792;-76
2021/09/02 08:00:18;;;;;;;;;;;15.80;93.00;;;;;;4331160;33;45135;-76
2021/09/02 08:02:48;;;;;;;;;;;15.80;93.10;;;;;;4330622;33;43599;-76
2021/09/02 08:05:18;;;;;;;;;;;15.80;93.00;;;;;;4331127;33;42221;-76
2021/09/02 08:07:53;;;;;;;;;;;15.80;93.10;;;;;;4331018;33;43854;-76
2021/09/02 08:10:21;;;;;;;;;;;15.80;93.10;;;;;;4331264;33;43848;-76
2021/09/02 08:12:48;;;;;;;;;;;15.80;93.10;;;;;;4329880;33;44281;-76
2021/09/02 08:15:19;;;;;;;;;;;15.80;93.10;;;;;;4330755;33;43773;-76
2021/09/02 08:17:47;;;;;;;;;;;15.80;93.10;;;;;;4330078;33;43903;-76
2021/09/02 08:20:15;;;;;;;;;;;15.90;93.20;;;;;;4329839;33;44101;-77
2021/09/02 08:22:45;;;;;;;;;;;15.80;93.10;;;;;;4330553;33;43128;-77
2021/09/02 08:25:15;;;;;;;;;;;15.90;93.20;;;;;;4329432;33;44037;-76
2021/09/02 08:27:45;;;;;;;;;;;15.80;93.20;;;;;;4330519;33;43791;-77
2021/09/02 08:30:22;;;;;;;;;;;15.90;93.20;;;;;;4329307;33;42787;-76
2021/09/02 08:32:50;;;;;;;;;;;15.90;93.20;;;;;;4330267;33;43038;-76
2021/09/02 08:35:29;;;;;;;;;;;15.90;93.20;;;;;;4330756;33;44347;-76
2021/09/02 08:37:58;;;;;;;;;;;15.90;93.20;;;;;;4330451;33;44683;-77
2021/09/02 08:40:26;;;;;;;;;;;15.90;93.20;;;;;;4330279;33;42344;-76
2021/09/02 08:42:57;;;;;;;;;;;15.90;93.20;;;;;;4330137;33;43172;-76
2021/09/02 08:45:25;;;;;;;;;;;15.90;93.20;;;;;;4330735;33;42478;-77
2021/09/02 08:47:55;;;;;;;;;;;15.90;93.30;;;;;;4329452;33;44059;-76
2021/09/02 08:50:27;;;;;;;;;;;15.90;93.20;;;;;;4329085;33;44109;-76
2021/09/02 08:53:02;;;;;;;;;;;15.90;93.30;;;;;;4330604;33;43444;-76
2021/09/02 08:55:32;;;;;;;;;;;16.00;93.30;;;;;;4330351;33;43475;-76
2021/09/02 08:57:59;;;;;;;;;;;16.00;93.30;;;;;;4330564;33;43478;-76
2021/09/02 09:00:27;;;;;;;;;;;16.00;93.30;;;;;;4330649;33;43280;-76
2021/09/02 09:02:59;;;;;;;;;;;16.00;93.40;;;;;;4330240;33;43864;-76
2021/09/02 09:05:28;;;;;;;;;;;16.00;93.40;;;;;;4330419;33;44133;-76
2021/09/02 09:07:55;;;;;;;;;;;16.00;93.40;;;;;;4330522;33;44273;-77
2021/09/02 09:10:23;;;;;;;;;;;16.10;93.40;;;;;;4329962;33;43442;-77
2021/09/02 09:12:58;;;;;;;;;;;16.00;93.40;;;;;;4328996;33;43011;-77
2021/09/02 09:15:30;;;;;;;;;;;16.10;93.40;;;;;;4330612;33;43735;-76
2021/09/02 09:18:12;;;;;;;;;;;16.10;93.40;;;;;;4329987;33;42703;-77
2021/09/02 09:20:42;;;;;;;;;;;16.10;93.40;;;;;;4329464;33;43360;-77
2021/09/02 09:23:10;;;;;;;;;;;16.10;93.50;;;;;;4330299;33;42215;-76
2021/09/02 09:25:37;;;;;;;;;;;16.10;93.50;;;;;;4330050;33;44211;-76
2021/09/02 09:28:05;;;;;;;;;;;16.10;93.50;;;;;;4329887;33;44187;-76
2021/09/02 09:30:34;;;;;;;;;;;16.20;93.50;;;;;;4330118;33;42979;-76
2021/09/02 09:33:03;;;;;;;;;;;16.20;93.50;;;;;;4329181;33;43505;-76
2021/09/02 09:35:32;;;;;;;;;;;16.20;93.50;;;;;;4329829;33;43129;-76
2021/09/02 09:38:05;;;;;;;;;;;16.20;93.50;;;;;;4329014;33;42292;-77
2021/09/02 09:40:33;;;;;;;;;;;16.20;93.50;;;;;;4328986;33;42631;-77
2021/09/02 09:43:00;;;;;;;;;;;16.20;93.50;;;;;;4329907;33;42874;-77
2021/09/02 09:45:36;;;;;;;;;;;16.20;93.60;;;;;;4330864;33;20364;-76
2021/09/02 09:48:23;;;;;;;;;;;16.30;93.60;;;;;;4328514;33;43962;-76
2021/09/02 09:51:03;;;;;;;;;;;16.30;93.60;;;;;;4323836;33;44614;-76
2021/09/02 09:53:33;;;;;;;;;;;16.30;93.60;;;;;;4331846;33;43962;-77
2021/09/02 09:56:00;;;;;;;;;;;16.30;93.60;;;;;;4331830;33;42859;-76
2021/09/02 09:58:28;;;;;;;;;;;16.30;93.60;;;;;;4332507;33;43489;-77
2021/09/02 10:01:00;;;;;;;;;;;16.30;93.60;;;;;;4332453;33;42650;-77
2021/09/02 10:03:31;;;;;;;;;;;16.40;93.60;;;;;;4332323;33;43553;-76
2021/09/02 10:06:03;;;;;;;;;;;16.40;93.60;;;;;;4332569;33;44250;-77
2021/09/02 10:08:31;;;;;;;;;;;16.40;93.60;;;;;;4332895;33;43871;-77
2021/09/02 10:11:01;;;;;;;;;;;16.40;93.60;;;;;;4332243;33;42492;-76
2021/09/02 10:13:28;;;;;;;;;;;16.40;93.70;;;;;;4332148;33;42747;-76
2021/09/02 10:15:55;;;;;;;;;;;16.40;93.60;;;;;;4333229;33;19997;-77
2021/09/02 10:18:23;;;;;;;;;;;16.40;93.60;;;;;;4332642;33;43862;-77
2021/09/02 10:20:52;;;;;;;;;;;16.50;93.70;;;;;;4331373;33;43916;-77
2021/09/02 10:23:23;;;;;;;;;;;16.50;93.70;;;;;;4332498;33;43816;-76
2021/09/02 10:25:50;;;;;;;;;;;16.50;93.70;;;;;;4332545;33;43945;-77
2021/09/02 10:28:28;;;;;;;;;;;16.50;93.70;;;;;;4331164;33;43750;-76
2021/09/02 10:30:56;;;;;;;;;;;16.50;93.70;;;;;;4332091;33;42951;-78
2021/09/02 10:33:36;;;;;;;;;;;16.50;93.70;;;;;;4331186;33;44220;-77
2021/09/02 10:36:23;;;;;;;;;;;16.60;93.70;;;;;;4332424;33;44222;-76
2021/09/02 10:38:54;;;;;;;;;;;16.60;93.70;;;;;;4328974;33;44629;-77
2021/09/02 10:41:49;;;;;;;;;;;16.60;93.70;;;;;;4332100;33;42512;-76
2021/09/02 10:44:18;;;;;;;;;;;16.60;93.70;;;;;;4329796;33;44272;-76
2021/09/02 10:46:50;;;;;;;;;;;16.60;93.70;;;;;;4332842;33;20048;-76
2021/09/02 10:49:38;;;;;;;;;;;16.60;93.70;;;;;;4331732;33;42845;-76
2021/09/02 10:52:24;;;;;;;;;;;16.70;93.70;;;;;;4331693;33;42795;-76
2021/09/02 10:54:51;;;;;;;;;;;16.70;93.70;;;;;;4332200;33;43887;-77
2021/09/02 10:57:18;;;;;;;;;;;16.70;93.70;;;;;;4331039;33;43340;-76
2021/09/02 10:59:49;;;;;;;;;;;16.70;93.70;;;;;;4330544;33;42636;-76
2021/09/02 11:02:17;;;;;;;;;;;16.80;93.70;;;;;;4330617;33;45510;-76
2021/09/02 11:04:45;;;;;;;;;;;16.80;93.70;;;;;;4330851;33;43802;-77
2021/09/02 11:07:13;;;;;;;;;;;16.80;93.70;;;;;;4331080;33;43521;-76
2021/09/02 11:09:42;;;;;;;;;;;16.80;93.70;;;;;;4331847;33;43664;-76
2021/09/02 11:12:13;;;;;;;;;;;16.90;93.70;;;;;;4330559;33;43282;-77
2021/09/02 11:14:44;;;;;;;;;;;16.90;93.80;;;;;;4331409;33;42950;-76
2021/09/02 11:17:12;;;;;;;;;;;16.90;93.80;;;;;;4332805;33;20036;-76
2021/09/02 11:19:40;;;;;;;;;;;16.90;93.70;;;;;;4330583;33;43214;-76
2021/09/02 11:22:10;;;;;;;;;;;16.90;93.70;;;;;;4331203;33;43253;-76
2021/09/02 11:24:57;;;;;;;;;;;17.00;93.80;;;;;;4331256;33;45812;-77
2021/09/02 11:27:26;;;;;;;;;;;17.00;93.80;;;;;;4330220;33;42824;-76
2021/09/02 11:30:11;;;;;;;;;;;17.00;93.80;;;;;;4330840;33;44094;-77
2021/09/02 11:32:41;;;;;;;;;;;17.00;93.80;;;;;;4331140;33;43674;-77
2021/09/02 11:35:09;;;;;;;;;;;17.00;93.70;;;;;;4330150;33;44205;-76
2021/09/02 11:37:40;;;;;;;;;;;17.10;93.80;;;;;;4329977;33;44184;-76
2021/09/02 11:40:13;;;;;;;;;;;17.10;93.70;;;;;;4331044;33;42775;-76
2021/09/02 11:42:40;;;;;;;;;;;17.20;93.80;;;;;;4331335;33;43259;-76
2021/09/02 11:45:07;;;;;;;;;;;17.20;93.80;;;;;;4331329;33;44034;-77
2021/09/02 11:47:35;;;;;;;;;;;17.20;93.80;;;;;;4332226;33;20473;-76
2021/09/02 11:50:03;;;;;;;;;;;17.30;93.80;;;;;;4331013;33;42644;-76
2021/09/02 11:52:41;;;;;;;;;;;17.30;93.80;;;;;;4331198;33;44328;-77
2021/09/02 11:55:13;;;;;;;;;;;17.30;93.80;;;;;;4331283;33;44184;-76
2021/09/02 11:57:43;;;;;;;;;;;17.30;93.80;;;;;;4329785;33;42576;-76
2021/09/02 12:00:13;;;;;;;;;;;17.40;93.80;;;;;;4329902;33;43661;-76
2021/09/02 12:02:45;;;;;;;;;;;17.40;93.80;;;;;;4330808;33;44257;-77
2021/09/02 12:05:12;;;;;;;;;;;17.40;93.80;;;;;;4329696;33;43123;-77
2021/09/02 12:07:40;;;;;;;;;;;17.40;93.80;;;;;;4331125;33;42973;-76
2021/09/02 12:10:08;;;;;;;;;;;17.40;93.80;;;;;;4330084;33;44051;-77
2021/09/02 12:12:36;;;;;;;;;;;17.50;93.80;;;;;;4330489;33;42636;-76
2021/09/02 12:15:17;;;;;;;;;;;17.50;93.80;;;;;;4329527;33;43245;-76
2021/09/02 12:17:44;;;;;;;;;;;17.50;93.80;;;;;;4332199;33;20127;-76
2021/09/02 12:20:11;;;;;;;;;;;17.60;93.80;;;;;;4330482;33;43273;-76
2021/09/02 12:22:40;;;;;;;;;;;17.60;93.80;;;;;;4330040;33;44010;-76
2021/09/02 12:25:07;;;;;;;;;;;17.60;93.80;;;;;;4329810;33;43817;-76
2021/09/02 12:27:41;;;;;;;;;;;17.70;93.80;;;;;;4329414;33;42115;-77
2021/09/02 12:30:11;;;;;;;;;;;17.70;93.90;;;;;;4329912;33;42864;-76
2021/09/02 12:32:38;;;;;;;;;;;17.80;93.90;;;;;;4330783;33;44526;-77
2021/09/02 12:35:16;;;;;;;;;;;17.80;93.90;;;;;;4329673;33;42933;-76
2021/09/02 12:37:43;;;;;;;;;;;17.80;93.80;;;;;;4330755;33;43124;-76
2021/09/02 12:40:12;;;;;;;;;;;17.90;93.80;;;;;;4330380;33;43304;-76
2021/09/02 12:42:42;;;;;;;;;;;17.90;93.90;;;;;;4330854;33;44077;-76
2021/09/02 12:45:11;;;;;;;;;;;17.90;93.80;;;;;;4330914;33;43473;-76
2021/09/02 12:47:44;;;;;;;;;;;18.00;93.90;;;;;;4330719;33;43318;-76
2021/09/02 12:50:14;;;;;;;;;;;18.00;93.80;;;;;;4331573;33;20403;-76
2021/09/02 12:52:45;;;;;;;;;;;18.00;93.80;;;;;;4329166;33;44200;-76
2021/09/02 12:55:22;;;;;;;;;;;18.10;93.90;;;;;;4329375;33;43773;-76
2021/09/02 12:57:52;;;;;;;;;;;18.10;93.90;;;;;;4329429;33;43963;-76
2021/09/02 13:00:33;;;;;;;;;;;18.20;93.90;;;;;;4330614;33;43514;-78
2021/09/02 13:03:02;;;;;;;;;;;18.20;93.90;;;;;;4329937;33;43851;-76
2021/09/02 13:05:30;;;;;;;;;;;18.30;93.90;;;;;;4330008;33;44786;-76
2021/09/02 13:07:58;;;;;;;;;;;18.30;93.90;;;;;;4330018;33;44372;-76
2021/09/02 13:10:26;;;;;;;;;;;18.30;93.90;;;;;;4329527;33;43226;-77
2021/09/02 13:12:53;;;;;;;;;;;18.30;93.90;;;;;;4328973;33;43475;-77
2021/09/02 13:15:23;;;;;;;;;;;18.40;93.90;;;;;;4330083;33;43209;-76
2021/09/02 13:17:51;;;;;;;;;;;18.40;93.90;;;;;;4328823;33;45266;-76
2021/09/02 13:20:21;;;;;;;;;;;18.50;93.90;;;;;;4331170;33;19998;-76
2021/09/02 13:22:49;;;;;;;;;;;18.50;93.90;;;;;;4330075;33;43353;-76
2021/09/02 13:25:19;;;;;;;;;;;18.50;93.90;;;;;;4329887;33;42844;-76
2021/09/02 13:27:47;;;;;;;;;;;18.60;93.90;;;;;;4330138;33;45375;-76
2021/09/02 13:30:20;;;;;;;;;;;18.60;93.90;;;;;;4332824;33;42622;-76
2021/09/02 13:32:48;;;;;;;;;;;18.70;93.90;;;;;;4332890;33;43967;-76
2021/09/02 13:35:18;;;;;;;;;;;18.70;93.90;;;;;;4332734;33;43498;-78
2021/09/02 13:37:45;;;;;;;;;;;18.80;93.90;;;;;;4333352;33;44282;-76
2021/09/02 13:40:14;;;;;;;;;;;18.80;93.90;;;;;;4331565;33;42735;-76
2021/09/02 13:42:44;;;;;;;;;;;18.80;93.90;;;;;;4332945;33;43571;-76
2021/09/02 13:45:20;;;;;;;;;;;18.90;93.90;;;;;;4333211;33;43881;-76
2021/09/02 13:47:52;;;;;;;;;;;18.90;93.80;;;;;;4331600;33;42676;-76
2021/09/02 13:50:25;;;;;;;;;;;19.00;93.90;;;;;;4333747;33;20036;-76
2021/09/02 13:52:55;;;;;;;;;;;19.00;93.80;;;;;;4332489;33;42562;-76
2021/09/02 13:55:25;;;;;;;;;;;19.00;93.80;;;;;;4332678;33;42644;-76
2021/09/02 13:57:58;;;;;;;;;;;19.10;93.80;;;;;;4332841;33;43429;-76
2021/09/02 14:00:25;;;;;;;;;;;19.20;93.80;;;;;;4333085;33;43870;-77
2021/09/02 14:02:55;;;;;;;;;;;19.20;93.80;;;;;;4332529;33;43969;-76
2021/09/02 14:05:22;;;;;;;;;;;19.20;93.70;;;;;;4332816;33;43862;-77
2021/09/02 14:07:51;;;;;;;;;;;19.30;93.70;;;;;;4332825;33;43171;-77
2021/09/02 14:10:21;;;;;;;;;;;19.30;93.70;;;;;;4332239;33;43310;-76
2021/09/02 14:12:48;;;;;;;;;;;19.40;93.70;;;;;;4332729;33;43540;-76
2021/09/02 14:15:18;;;;;;;;;;;19.40;93.70;;;;;;4331461;33;44215;-76
2021/09/02 14:17:48;;;;;;;;;;;19.40;93.60;;;;;;4332555;33;44065;-76
2021/09/02 14:20:15;;;;;;;;;;;19.50;93.50;;;;;;4332213;33;43790;-76
2021/09/02 14:22:47;;;;;;;;;;;19.50;93.50;;;;;;4331043;33;43022;-77
2021/09/02 14:25:17;;;;;;;;;;;19.50;93.50;;;;;;4331679;33;43484;-76
2021/09/02 14:27:48;;;;;;;;;;;19.60;93.50;;;;;;4332548;33;43553;-76
2021/09/02 14:30:21;;;;;;;;;;;19.70;93.40;;;;;;4331469;33;43204;-76
2021/09/02 14:32:51;;;;;;;;;;;19.60;93.30;;;;;;4332069;33;43041;-77